Time,TemperatureF,DewpointF,PressureIn,WindDirection,WindDirectionDegrees,WindSpeedMPH,WindSpeedGustMPH,Humidity,HourlyPrecipIn,Conditions,Clouds,dailyrainin,SoftwareType,DateUTC
2013-05-31 00:01:00,63.9,61.2,-100.00,ESE,109,0.0,0.0,91,0.00,,,0.06,meteohub,2013-05-31 05:01:00,
2013-05-31 00:06:00,63.9,61.2,-100.00,East,96,0.0,0.0,91,0.00,,,0.06,meteohub,2013-05-31 05:06:00,
2013-05-31 00:11:00,63.9,61.2,-100.00,ESE,118,0.0,0.0,91,0.00,,,0.06,meteohub,2013-05-31 05:11:00,
2013-05-31 00:16:00,63.9,61.2,-100.00,ESE,111,0.0,0.0,91,0.00,,,0.06,meteohub,2013-05-31 05:16:00,
2013-05-31 00:21:00,63.9,61.5,-100.00,East,87,0.0,5.0,92,0.00,,,0.06,meteohub,2013-05-31 05:21:00,
2013-05-31 00:26:00,63.9,61.5,-100.00,ESE,111,1.0,5.0,92,0.00,,,0.06,meteohub,2013-05-31 05:26:00,
2013-05-31 00:31:00,63.9,61.5,-100.00,ESE,119,0.0,5.0,92,0.00,,,0.06,meteohub,2013-05-31 05:31:00,
2013-05-31 00:36:00,63.9,61.5,-100.00,ESE,116,0.0,2.0,92,0.00,,,0.06,meteohub,2013-05-31 05:36:00,
2013-05-31 00:41:00,63.9,61.5,-100.00,East,101,1.0,2.0,92,0.00,,,0.06,meteohub,2013-05-31 05:41:00,
2013-05-31 00:46:00,63.9,61.9,-100.00,ESE,111,0.0,2.0,93,0.00,,,0.06,meteohub,2013-05-31 05:46:00,
2013-05-31 00:51:00,63.9,61.9,-100.00,SSE,149,6.0,6.0,93,0.00,,,0.06,meteohub,2013-05-31 05:51:00,
2013-05-31 00:57:00,64.0,62.1,-100.00,ESE,109,0.0,10.0,93,0.00,,,0.06,meteohub,2013-05-31 05:57:00,
2013-05-31 01:02:00,64.0,62.1,-100.00,SSE,157,0.0,10.0,93,0.00,,,0.06,meteohub,2013-05-31 06:02:00,
2013-05-31 01:07:00,64.2,62.2,-100.00,ESE,119,7.0,10.0,93,0.00,,,0.06,meteohub,2013-05-31 06:07:00,
2013-05-31 01:12:00,64.2,62.2,-100.00,ESE,113,0.0,9.0,93,0.00,,,0.06,meteohub,2013-05-31 06:12:00,
2013-05-31 01:17:00,64.2,61.9,-100.00,SSE,163,6.0,9.0,92,0.00,,,0.06,meteohub,2013-05-31 06:17:00,
2013-05-31 01:22:00,64.4,62.4,-100.00,ESE,117,0.0,11.0,93,0.00,,,0.06,meteohub,2013-05-31 06:22:00,
2013-05-31 01:27:00,64.2,61.9,-100.00,ESE,106,0.0,11.0,92,0.00,,,0.06,meteohub,2013-05-31 06:27:00,
2013-05-31 01:32:00,64.2,61.9,-100.00,ESE,111,0.0,11.0,92,0.00,,,0.06,meteohub,2013-05-31 06:32:00,
2013-05-31 01:37:00,64.0,61.7,-100.00,ESE,106,0.0,6.0,92,0.00,,,0.06,meteohub,2013-05-31 06:37:00,
2013-05-31 01:42:00,64.0,62.1,-100.00,ESE,107,0.0,6.0,93,0.00,,,0.06,meteohub,2013-05-31 06:42:00,
2013-05-31 01:47:00,64.0,62.1,-100.00,ESE,115,0.0,0.0,93,0.00,,,0.06,meteohub,2013-05-31 06:47:00,
2013-05-31 01:52:00,64.0,62.1,-100.00,SE,142,3.0,3.0,93,0.00,,,0.06,meteohub,2013-05-31 06:52:00,
2013-05-31 01:57:00,64.0,62.1,-100.00,ESE,109,0.0,7.0,93,0.00,,,0.06,meteohub,2013-05-31 06:57:00,
2013-05-31 02:02:00,64.0,62.1,-100.00,ESE,113,0.0,7.0,93,0.00,,,0.06,meteohub,2013-05-31 07:02:00,
2013-05-31 02:08:00,64.0,62.1,-100.00,SSE,150,5.0,10.0,93,0.00,,,0.06,meteohub,2013-05-31 07:08:00,
2013-05-31 02:13:00,64.2,61.9,-100.00,SSE,150,0.0,10.0,92,0.00,,,0.06,meteohub,2013-05-31 07:13:00,
2013-05-31 02:18:00,64.0,61.7,-100.00,SE,144,0.0,10.0,92,0.00,,,0.06,meteohub,2013-05-31 07:18:00,
2013-05-31 02:23:00,64.2,61.9,-100.00,SE,133,0.0,8.0,92,0.00,,,0.06,meteohub,2013-05-31 07:23:00,
2013-05-31 02:28:00,64.2,61.9,-100.00,SE,134,0.0,1.0,92,0.00,,,0.06,meteohub,2013-05-31 07:28:00,
2013-05-31 02:33:00,64.2,61.9,-100.00,ESE,117,0.0,1.0,92,0.00,,,0.06,meteohub,2013-05-31 07:33:00,
2013-05-31 02:38:00,64.0,61.7,-100.00,SSE,166,0.0,1.0,92,0.00,,,0.06,meteohub,2013-05-31 07:38:00,
2013-05-31 02:43:00,64.0,61.7,-100.00,ESE,121,0.0,0.0,92,0.00,,,0.06,meteohub,2013-05-31 07:43:00,
2013-05-31 02:45:00,64.0,61.7,-100.00,ESE,122,0.0,0.0,92,0.00,,,0.06,meteohub,2013-05-31 07:45:00,
2013-05-31 02:50:00,63.9,61.5,-100.00,ESE,109,0.0,0.0,92,0.00,,,0.06,meteohub,2013-05-31 07:50:00,
2013-05-31 02:55:00,63.9,61.5,-100.00,ESE,121,0.0,0.0,92,0.00,,,0.06,meteohub,2013-05-31 07:55:00,
2013-05-31 03:00:00,63.9,61.5,-100.00,SE,133,0.0,0.0,92,0.00,,,0.06,meteohub,2013-05-31 08:00:00,
2013-05-31 03:05:00,63.9,61.5,-100.00,ESE,115,0.0,0.0,92,0.00,,,0.06,meteohub,2013-05-31 08:05:00,
2013-05-31 03:10:00,63.7,61.3,-100.00,ESE,115,0.0,0.0,92,0.00,,,0.06,meteohub,2013-05-31 08:10:00,
2013-05-31 03:15:00,63.7,61.3,-100.00,ESE,116,0.0,0.0,92,0.00,,,0.06,meteohub,2013-05-31 08:15:00,
2013-05-31 03:20:00,63.7,61.3,-100.00,ESE,117,0.0,0.0,92,0.00,,,0.06,meteohub,2013-05-31 08:20:00,
2013-05-31 03:25:00,63.7,61.3,-100.00,ESE,117,0.0,0.0,92,0.00,,,0.06,meteohub,2013-05-31 08:25:00,
2013-05-31 03:30:00,63.7,61.3,-100.00,ESE,117,0.0,0.0,92,0.00,,,0.06,meteohub,2013-05-31 08:30:00,
2013-05-31 03:35:00,63.7,61.3,-100.00,ESE,117,0.0,0.0,92,0.00,,,0.06,meteohub,2013-05-31 08:35:00,
2013-05-31 03:40:00,63.7,61.3,-100.00,SE,137,0.0,0.0,92,0.00,,,0.06,meteohub,2013-05-31 08:40:00,
2013-05-31 03:45:00,63.7,61.3,-100.00,SE,136,0.0,0.0,92,0.00,,,0.06,meteohub,2013-05-31 08:45:00,
2013-05-31 03:50:00,63.3,61.0,-100.00,SE,136,0.0,0.0,92,0.00,,,0.06,meteohub,2013-05-31 08:50:00,
2013-05-31 03:55:00,63.3,61.0,-100.00,SE,134,0.0,0.0,92,0.00,,,0.06,meteohub,2013-05-31 08:55:00,
2013-05-31 04:00:00,63.3,61.0,-100.00,SE,134,0.0,0.0,92,0.00,,,0.06,meteohub,2013-05-31 09:00:00,
2013-05-31 04:05:00,63.5,61.2,-100.00,SE,131,0.0,0.0,92,0.00,,,0.06,meteohub,2013-05-31 09:05:00,
2013-05-31 04:10:00,63.7,61.3,-100.00,SE,129,0.0,0.0,92,0.00,,,0.06,meteohub,2013-05-31 09:10:00,
2013-05-31 04:15:00,63.7,61.3,-100.00,East,90,0.0,0.0,92,0.00,,,0.06,meteohub,2013-05-31 09:15:00,
2013-05-31 04:20:00,63.7,61.3,-100.00,SE,127,0.0,0.0,92,0.00,,,0.06,meteohub,2013-05-31 09:20:00,
2013-05-31 04:25:00,63.5,61.2,-100.00,SE,126,0.0,0.0,92,0.00,,,0.06,meteohub,2013-05-31 09:25:00,
2013-05-31 04:30:00,63.5,61.2,-100.00,ESE,121,0.0,0.0,92,0.00,,,0.06,meteohub,2013-05-31 09:30:00,
2013-05-31 04:35:00,63.7,61.3,-100.00,ESE,121,0.0,0.0,92,0.00,,,0.06,meteohub,2013-05-31 09:35:00,
2013-05-31 04:40:00,63.7,61.3,-100.00,ESE,121,0.0,0.0,92,0.00,,,0.06,meteohub,2013-05-31 09:40:00,
2013-05-31 04:45:00,63.5,61.2,-100.00,ESE,121,0.0,0.0,92,0.00,,,0.06,meteohub,2013-05-31 09:45:00,
2013-05-31 04:50:00,63.3,61.0,-100.00,ESE,121,0.0,0.0,92,0.00,,,0.06,meteohub,2013-05-31 09:50:00,
2013-05-31 04:55:00,63.3,61.0,-100.00,ESE,121,0.0,0.0,92,0.00,,,0.06,meteohub,2013-05-31 09:55:00,
2013-05-31 05:00:00,63.3,61.3,-100.00,ESE,123,0.0,0.0,93,0.00,,,0.06,meteohub,2013-05-31 10:00:00,
2013-05-31 05:05:00,63.3,61.3,-100.00,ESE,123,0.0,0.0,93,0.00,,,0.06,meteohub,2013-05-31 10:05:00,
2013-05-31 05:10:00,63.1,61.2,-100.00,ESE,123,0.0,0.0,93,0.00,,,0.06,meteohub,2013-05-31 10:10:00,
2013-05-31 05:15:00,63.0,61.0,-100.00,ESE,123,0.0,0.0,93,0.00,,,0.06,meteohub,2013-05-31 10:15:00,
2013-05-31 05:20:00,62.8,60.8,-100.00,ESE,122,0.0,0.0,93,0.00,,,0.06,meteohub,2013-05-31 10:20:00,
2013-05-31 05:25:00,63.0,61.0,-100.00,ESE,123,0.0,0.0,93,0.00,,,0.06,meteohub,2013-05-31 10:25:00,
2013-05-31 05:30:00,63.0,61.0,-100.00,ESE,123,0.0,0.0,93,0.00,,,0.06,meteohub,2013-05-31 10:30:00,
2013-05-31 05:35:00,63.0,61.0,-100.00,ESE,122,0.0,0.0,93,0.00,,,0.06,meteohub,2013-05-31 10:35:00,
2013-05-31 05:40:00,62.8,60.8,-100.00,ESE,123,0.0,0.0,93,0.00,,,0.06,meteohub,2013-05-31 10:40:00,
2013-05-31 05:45:00,62.6,60.6,-100.00,ESE,122,0.0,0.0,93,0.00,,,0.06,meteohub,2013-05-31 10:45:00,
2013-05-31 05:50:00,62.4,60.4,-100.00,ESE,123,0.0,0.0,93,0.00,,,0.06,meteohub,2013-05-31 10:50:00,
2013-05-31 05:55:00,62.4,60.4,-100.00,ESE,122,0.0,0.0,93,0.00,,,0.06,meteohub,2013-05-31 10:55:00,
2013-05-31 06:00:00,62.4,60.4,-100.00,ESE,122,0.0,0.0,93,0.00,,,0.06,meteohub,2013-05-31 11:00:00,
2013-05-31 06:06:00,62.4,60.6,-100.00,ESE,123,0.0,0.0,94,0.00,,,0.06,meteohub,2013-05-31 11:06:00,
2013-05-31 06:11:00,62.6,61.5,-100.00,ESE,123,0.0,0.0,96,0.00,,,0.06,meteohub,2013-05-31 11:11:00,
2013-05-31 06:16:00,63.0,61.2,-100.00,ESE,123,0.0,0.0,94,0.00,,,0.06,meteohub,2013-05-31 11:16:00,
2013-05-31 06:21:00,63.1,61.3,-100.00,ESE,123,0.0,0.0,94,0.00,,,0.06,meteohub,2013-05-31 11:21:00,
2013-05-31 06:26:00,63.5,61.7,-100.00,ESE,122,0.0,0.0,94,0.00,,,0.06,meteohub,2013-05-31 11:26:00,
2013-05-31 06:31:00,63.9,62.1,-100.00,SE,127,0.0,0.0,94,0.00,,,0.06,meteohub,2013-05-31 11:31:00,
2013-05-31 06:36:00,63.9,62.1,-100.00,SE,128,0.0,0.0,94,0.00,,,0.06,meteohub,2013-05-31 11:36:00,
2013-05-31 06:41:00,63.9,62.1,-100.00,SE,132,0.0,0.0,94,0.00,,,0.06,meteohub,2013-05-31 11:41:00,
2013-05-31 06:46:00,63.9,62.1,-100.00,SSW,202,0.0,0.0,94,0.00,,,0.06,meteohub,2013-05-31 11:46:00,
2013-05-31 06:51:00,64.0,62.2,-100.00,SSW,202,0.0,0.0,94,0.00,,,0.06,meteohub,2013-05-31 11:51:00,
2013-05-31 06:56:00,64.0,62.2,-100.00,SSW,204,6.0,0.0,94,0.00,,,0.06,meteohub,2013-05-31 11:56:00,
2013-05-31 07:01:00,64.0,62.2,-100.00,South,182,0.0,10.0,94,0.00,,,0.06,meteohub,2013-05-31 12:01:00,
2013-05-31 07:06:00,64.0,62.2,-100.00,SSW,206,0.0,10.0,94,0.00,,,0.06,meteohub,2013-05-31 12:06:00,
2013-05-31 07:11:00,64.0,62.2,-100.00,SSW,206,0.0,10.0,94,0.01,,,0.07,meteohub,2013-05-31 12:11:00,
2013-05-31 07:16:00,64.0,62.2,-100.00,South,178,0.0,1.0,94,0.01,,,0.07,meteohub,2013-05-31 12:16:00,
2013-05-31 07:21:00,64.2,62.4,-100.00,SSW,200,1.0,1.0,94,0.02,,,0.08,meteohub,2013-05-31 12:21:00,
2013-05-31 07:26:00,64.2,62.4,-100.00,SSE,165,0.0,12.0,94,0.03,,,0.09,meteohub,2013-05-31 12:26:00,
2013-05-31 07:31:00,64.2,62.4,-100.00,SSW,198,0.0,12.0,94,0.03,,,0.09,meteohub,2013-05-31 12:31:00,
2013-05-31 07:36:00,64.0,62.2,-100.00,South,189,0.0,12.0,94,0.03,,,0.09,meteohub,2013-05-31 12:36:00,
2013-05-31 07:41:00,64.0,62.2,-100.00,SSW,208,0.0,1.0,94,0.03,,,0.09,meteohub,2013-05-31 12:41:00,
2013-05-31 07:46:00,64.2,62.4,-100.00,SSW,206,0.0,1.0,94,0.04,,,0.10,meteohub,2013-05-31 12:46:00,
2013-05-31 07:51:00,64.2,62.4,-100.00,SW,217,3.0,11.0,94,0.05,,,0.11,meteohub,2013-05-31 12:51:00,
2013-05-31 07:56:00,64.4,62.6,-100.00,SSW,199,0.0,11.0,94,0.06,,,0.12,meteohub,2013-05-31 12:56:00,
2013-05-31 08:01:00,64.4,62.6,-100.00,SW,236,0.0,11.0,94,0.06,,,0.12,meteohub,2013-05-31 13:01:00,
2013-05-31 08:06:00,64.2,62.4,-100.00,WSW,252,0.0,9.0,94,0.07,,,0.13,meteohub,2013-05-31 13:06:00,
2013-05-31 08:11:00,64.2,62.4,-100.00,West,279,0.0,1.0,94,0.06,,,0.13,meteohub,2013-05-31 13:11:00,
2013-05-31 08:16:00,64.2,62.4,-100.00,WNW,294,0.0,1.0,94,0.05,,,0.13,meteohub,2013-05-31 13:16:00,
2013-05-31 08:21:00,64.0,62.6,-100.00,WNW,287,0.0,1.0,95,0.05,,,0.13,meteohub,2013-05-31 13:21:00,
2013-05-31 08:26:00,63.9,62.1,-100.00,SW,232,0.0,1.0,94,0.04,,,0.13,meteohub,2013-05-31 13:26:00,
2013-05-31 08:31:00,63.9,62.1,-100.00,SSW,192,0.0,1.0,94,0.04,,,0.13,meteohub,2013-05-31 13:31:00,
2013-05-31 08:36:00,63.9,62.1,-100.00,South,186,0.0,1.0,94,0.04,,,0.13,meteohub,2013-05-31 13:36:00,
2013-05-31 08:41:00,64.0,62.6,-100.00,South,184,0.0,0.0,95,0.04,,,0.14,meteohub,2013-05-31 13:41:00,
2013-05-31 08:46:00,64.0,62.6,-100.00,South,176,0.0,0.0,95,0.03,,,0.14,meteohub,2013-05-31 13:46:00,
2013-05-31 08:51:00,64.0,62.6,-100.00,South,174,0.0,0.0,95,0.04,,,0.15,meteohub,2013-05-31 13:51:00,
2013-05-31 08:56:00,64.0,62.6,-100.00,South,174,0.0,0.0,95,0.04,,,0.16,meteohub,2013-05-31 13:56:00,
2013-05-31 09:01:00,63.9,62.4,-100.00,South,175,0.0,0.0,95,0.03,,,0.16,meteohub,2013-05-31 14:01:00,
2013-05-31 09:06:00,63.9,62.4,-100.00,West,271,0.0,0.0,95,0.04,,,0.17,meteohub,2013-05-31 14:06:00,
2013-05-31 09:11:00,63.7,62.2,-100.00,WNW,283,0.0,0.0,95,0.06,,,0.18,meteohub,2013-05-31 14:11:00,
2013-05-31 09:16:00,62.8,61.0,-100.00,WNW,294,6.0,9.0,94,0.07,,,0.20,meteohub,2013-05-31 14:16:00,
2013-05-31 09:21:00,62.1,60.3,-100.00,WNW,288,2.0,11.0,94,0.08,,,0.21,meteohub,2013-05-31 14:21:00,
2013-05-31 09:26:00,61.9,60.1,-100.00,NW,313,0.0,11.0,94,0.08,,,0.21,meteohub,2013-05-31 14:26:00,
2013-05-31 09:31:00,61.5,59.7,-100.00,NW,306,0.0,11.0,94,0.11,,,0.24,meteohub,2013-05-31 14:31:00,
2013-05-31 09:36:00,61.5,59.7,-100.00,NW,315,0.0,11.0,94,0.13,,,0.25,meteohub,2013-05-31 14:36:00,
2013-05-31 09:41:00,61.3,59.5,-100.00,NW,304,0.0,5.0,94,0.13,,,0.27,meteohub,2013-05-31 14:41:00,
2013-05-31 09:46:00,61.2,59.4,-100.00,NW,304,0.0,1.0,94,0.14,,,0.29,meteohub,2013-05-31 14:46:00,
2013-05-31 09:51:00,61.2,59.4,-100.00,NW,304,0.0,1.0,94,0.14,,,0.30,meteohub,2013-05-31 14:51:00,
2013-05-31 09:56:00,61.3,59.5,-100.00,WNW,303,0.0,0.0,94,0.15,,,0.31,meteohub,2013-05-31 14:56:00,
2013-05-31 10:01:00,61.2,59.4,-100.00,WNW,303,0.0,0.0,94,0.15,,,0.32,meteohub,2013-05-31 15:01:00,
2013-05-31 10:06:00,61.2,59.4,-100.00,NW,304,0.0,0.0,94,0.16,,,0.34,meteohub,2013-05-31 15:06:00,
2013-05-31 10:11:00,61.2,59.4,-100.00,NNE,27,0.0,0.0,94,0.16,,,0.35,meteohub,2013-05-31 15:11:00,
2013-05-31 10:16:00,61.0,59.2,-100.00,ENE,65,6.0,9.0,94,0.17,,,0.37,meteohub,2013-05-31 15:16:00,
2013-05-31 10:21:00,61.0,59.2,-100.00,ENE,77,10.0,12.0,94,0.16,,,0.37,meteohub,2013-05-31 15:21:00,
2013-05-31 10:26:00,60.6,58.8,-100.00,ENE,67,2.0,12.0,94,0.15,,,0.38,meteohub,2013-05-31 15:26:00,
2013-05-31 10:31:00,60.8,59.0,-100.00,ENE,74,3.0,12.0,94,0.13,,,0.38,meteohub,2013-05-31 15:31:00,
2013-05-31 10:36:00,61.0,59.2,-100.00,ENE,78,0.0,11.0,94,0.12,,,0.38,meteohub,2013-05-31 15:36:00,
2013-05-31 10:41:00,61.2,59.4,-100.00,ENE,64,0.0,11.0,94,0.10,,,0.38,meteohub,2013-05-31 15:41:00,
2013-05-31 10:46:00,61.2,59.2,-100.00,NE,49,0.0,7.0,93,0.09,,,0.38,meteohub,2013-05-31 15:46:00,
2013-05-31 10:51:00,61.2,59.2,-100.00,NE,46,0.0,1.0,93,0.07,,,0.38,meteohub,2013-05-31 15:51:00,
2013-05-31 10:56:00,61.3,59.4,-100.00,ENE,59,0.0,1.0,93,0.06,,,0.38,meteohub,2013-05-31 15:56:00,
2013-05-31 11:01:00,61.3,59.4,-100.00,ENE,70,0.0,1.0,93,0.05,,,0.38,meteohub,2013-05-31 16:01:00,
2013-05-31 11:06:00,61.5,59.5,-100.00,East,92,0.0,1.0,93,0.04,,,0.38,meteohub,2013-05-31 16:06:00,
2013-05-31 11:11:00,61.7,59.7,-100.00,East,92,0.0,1.0,93,0.02,,,0.38,meteohub,2013-05-31 16:11:00,
2013-05-31 11:16:00,61.9,59.9,-100.00,East,89,0.0,1.0,93,0.01,,,0.38,meteohub,2013-05-31 16:16:00,
2013-05-31 11:21:00,62.1,60.1,-100.00,East,91,0.0,1.0,93,0.00,,,0.38,meteohub,2013-05-31 16:21:00,
2013-05-31 11:26:00,62.1,60.1,-100.00,East,88,0.0,0.0,93,0.01,,,0.39,meteohub,2013-05-31 16:26:00,
2013-05-31 11:31:00,62.2,60.3,-100.00,East,95,0.0,0.0,93,0.01,,,0.39,meteohub,2013-05-31 16:31:00,
2013-05-31 11:36:00,62.4,60.4,-100.00,East,94,0.0,0.0,93,0.01,,,0.39,meteohub,2013-05-31 16:36:00,
2013-05-31 11:41:00,62.6,60.6,-100.00,East,94,0.0,0.0,93,0.01,,,0.39,meteohub,2013-05-31 16:41:00,
2013-05-31 11:46:00,62.8,60.8,-100.00,East,94,0.0,0.0,93,0.01,,,0.39,meteohub,2013-05-31 16:46:00,
2013-05-31 11:51:00,63.0,61.2,-100.00,East,94,0.0,0.0,94,0.05,,,0.43,meteohub,2013-05-31 16:51:00,
2013-05-31 11:56:00,63.7,61.9,-100.00,East,94,0.0,0.0,94,0.07,,,0.44,meteohub,2013-05-31 16:56:00,
2013-05-31 12:01:00,64.2,62.4,-100.00,East,94,0.0,0.0,94,0.07,,,0.45,meteohub,2013-05-31 17:01:00,
2013-05-31 12:06:00,65.5,64.0,-100.00,North,349,0.0,0.0,95,0.07,,,0.45,meteohub,2013-05-31 17:06:00,
2013-05-31 12:11:00,65.5,63.7,-100.00,WNW,289,0.0,0.0,94,0.07,,,0.45,meteohub,2013-05-31 17:11:00,
2013-05-31 12:17:00,64.9,63.1,-100.00,WNW,299,0.0,0.0,94,0.07,,,0.45,meteohub,2013-05-31 17:17:00,
2013-05-31 12:22:00,64.6,62.4,-100.00,WNW,297,0.0,0.0,93,0.06,,,0.45,meteohub,2013-05-31 17:22:00,
2013-05-31 12:27:00,63.9,61.9,-100.00,NW,315,0.0,0.0,93,0.06,,,0.45,meteohub,2013-05-31 17:27:00,
2013-05-31 12:32:00,63.7,61.7,-100.00,NW,310,0.0,0.0,93,0.06,,,0.45,meteohub,2013-05-31 17:32:00,
2013-05-31 12:37:00,63.7,61.7,-100.00,NW,304,0.0,0.0,93,0.06,,,0.45,meteohub,2013-05-31 17:37:00,
2013-05-31 12:42:00,63.7,61.7,-100.00,NW,304,0.0,0.0,93,0.06,,,0.45,meteohub,2013-05-31 17:42:00,
2013-05-31 12:47:00,63.7,61.7,-100.00,NW,321,0.0,0.0,93,0.05,,,0.45,meteohub,2013-05-31 17:47:00,
2013-05-31 12:52:00,63.5,61.5,-100.00,NW,325,0.0,1.0,93,0.02,,,0.45,meteohub,2013-05-31 17:52:00,
2013-05-31 12:57:00,63.5,61.5,-100.00,NW,318,0.0,1.0,93,0.00,,,0.45,meteohub,2013-05-31 17:57:00,
2013-05-31 13:02:00,63.7,61.7,-100.00,NW,313,3.0,9.0,93,0.00,,,0.45,meteohub,2013-05-31 18:02:00,
2013-05-31 13:07:00,63.3,61.3,-100.00,NNW,341,9.0,12.0,93,0.00,,,0.45,meteohub,2013-05-31 18:07:00,
2013-05-31 13:12:00,63.5,61.7,-100.00,NW,326,0.0,12.0,94,0.00,,,0.45,meteohub,2013-05-31 18:12:00,
2013-05-31 13:17:00,63.3,61.3,-100.00,NW,313,0.0,12.0,93,0.00,,,0.45,meteohub,2013-05-31 18:17:00,
2013-05-31 13:22:00,63.3,61.3,-100.00,WNW,293,6.0,11.0,93,0.00,,,0.45,meteohub,2013-05-31 18:22:00,
2013-05-31 13:27:00,63.1,61.2,-100.00,NW,313,12.0,15.0,93,0.00,,,0.45,meteohub,2013-05-31 18:27:00,
2013-05-31 13:32:00,63.0,61.0,-100.00,North,355,6.0,16.0,93,0.00,,,0.45,meteohub,2013-05-31 18:32:00,
2013-05-31 13:36:00,62.8,61.0,-100.00,NE,36,0.0,16.0,94,0.03,,,0.48,meteohub,2013-05-31 18:36:00,
2013-05-31 13:41:00,62.8,61.0,-100.00,NNW,330,0.0,16.0,94,0.13,,,0.58,meteohub,2013-05-31 18:41:00,
2013-05-31 13:46:00,62.4,60.6,-100.00,NNE,31,0.0,11.0,94,0.16,,,0.61,meteohub,2013-05-31 18:46:00,
2013-05-31 13:51:00,62.4,60.6,-100.00,NNE,30,0.0,1.0,94,0.19,,,0.64,meteohub,2013-05-31 18:51:00,
2013-05-31 13:56:00,62.4,60.6,-100.00,NNE,32,0.0,1.0,94,0.24,,,0.67,meteohub,2013-05-31 18:56:00,
2013-05-31 14:01:00,62.6,60.8,-100.00,NNE,30,0.0,1.0,94,0.26,,,0.71,meteohub,2013-05-31 19:01:00,
2013-05-31 14:06:00,62.4,60.6,-100.00,ENE,58,0.0,0.0,94,0.28,,,0.73,meteohub,2013-05-31 19:06:00,
2013-05-31 14:11:00,62.4,60.6,-100.00,ENE,63,0.0,0.0,94,0.30,,,0.75,meteohub,2013-05-31 19:11:00,
2013-05-31 14:16:00,62.4,61.0,-100.00,ENE,61,0.0,1.0,95,0.31,,,0.76,meteohub,2013-05-31 19:16:00,
2013-05-31 14:21:00,62.8,61.3,-100.00,ENE,59,0.0,1.0,95,0.31,,,0.76,meteohub,2013-05-31 19:21:00,
2013-05-31 14:26:00,63.0,61.5,-100.00,ENE,63,0.0,1.0,95,0.32,,,0.77,meteohub,2013-05-31 19:26:00,
2013-05-31 14:31:00,63.1,61.7,-100.00,ENE,72,0.0,0.0,95,0.32,,,0.78,meteohub,2013-05-31 19:31:00,
2013-05-31 14:36:00,63.3,61.9,-100.00,ENE,74,0.0,0.0,95,0.28,,,0.78,meteohub,2013-05-31 19:36:00,
2013-05-31 14:41:00,63.7,62.2,-100.00,SE,133,0.0,0.0,95,0.24,,,0.83,meteohub,2013-05-31 19:41:00,
2013-05-31 14:46:00,64.0,62.6,-100.00,SE,133,0.0,0.0,95,0.22,,,0.84,meteohub,2013-05-31 19:46:00,
2013-05-31 14:51:00,64.4,63.0,-100.00,SE,132,0.0,0.0,95,0.23,,,0.89,meteohub,2013-05-31 19:51:00,
2013-05-31 14:56:00,64.6,63.1,-100.00,SE,132,0.0,0.0,95,0.20,,,0.89,meteohub,2013-05-31 19:56:00,
2013-05-31 15:01:00,64.8,63.3,-100.00,ESE,102,0.0,0.0,95,0.17,,,0.89,meteohub,2013-05-31 20:01:00,
2013-05-31 15:06:00,64.9,63.5,-100.00,ESE,102,0.0,0.0,95,0.15,,,0.89,meteohub,2013-05-31 20:06:00,
2013-05-31 15:11:00,65.3,63.9,-100.00,ESE,103,0.0,0.0,95,0.14,,,0.89,meteohub,2013-05-31 20:11:00,
2013-05-31 15:16:00,65.7,64.2,-100.00,ESE,103,0.0,0.0,95,0.13,,,0.89,meteohub,2013-05-31 20:16:00,
2013-05-31 15:21:00,65.8,64.6,-100.00,ESE,102,0.0,0.0,96,0.13,,,0.89,meteohub,2013-05-31 20:21:00,
2013-05-31 15:26:00,66.0,64.6,-100.00,ESE,105,0.0,0.0,95,0.11,,,0.89,meteohub,2013-05-31 20:26:00,
2013-05-31 15:31:00,66.6,65.3,-100.00,ESE,105,0.0,0.0,96,0.11,,,0.89,meteohub,2013-05-31 20:31:00,
2013-05-31 15:36:00,66.9,65.7,-100.00,ESE,106,0.0,0.0,96,0.08,,,0.89,meteohub,2013-05-31 20:36:00,
2013-05-31 15:41:00,67.6,66.4,-100.00,ESE,107,0.0,0.0,96,0.06,,,0.89,meteohub,2013-05-31 20:41:00,
2013-05-31 15:46:00,67.8,66.4,-100.00,ESE,107,0.0,0.0,95,0.00,,,0.89,meteohub,2013-05-31 20:46:00,
2013-05-31 15:51:00,68.4,67.1,-100.00,ESE,109,0.0,0.0,96,0.00,,,0.89,meteohub,2013-05-31 20:51:00,
2013-05-31 15:56:00,68.7,67.3,-100.00,ESE,108,0.0,0.0,95,0.00,,,0.89,meteohub,2013-05-31 20:56:00,
2013-05-31 16:01:00,69.3,67.8,-100.00,ESE,108,0.0,0.0,95,0.00,,,0.89,meteohub,2013-05-31 21:01:00,
2013-05-31 16:06:00,69.6,67.8,-100.00,ESE,117,0.0,0.0,94,0.00,,,0.89,meteohub,2013-05-31 21:06:00,
2013-05-31 16:11:00,70.2,68.0,-100.00,ESE,119,0.0,1.0,93,0.00,,,0.89,meteohub,2013-05-31 21:11:00,
2013-05-31 16:16:00,70.3,67.8,-100.00,ESE,122,0.0,1.0,92,0.00,,,0.89,meteohub,2013-05-31 21:16:00,
2013-05-31 16:21:00,70.5,67.8,-100.00,ESE,121,0.0,1.0,91,0.00,,,0.89,meteohub,2013-05-31 21:21:00,
2013-05-31 16:27:00,71.1,68.4,-100.00,ESE,121,0.0,0.0,91,0.00,,,0.89,meteohub,2013-05-31 21:27:00,
2013-05-31 16:32:00,71.4,68.7,-100.00,ESE,119,0.0,0.0,91,0.00,,,0.89,meteohub,2013-05-31 21:32:00,
2013-05-31 16:37:00,71.2,67.8,-100.00,ESE,119,0.0,0.0,89,0.00,,,0.89,meteohub,2013-05-31 21:37:00,
2013-05-31 16:42:00,71.1,67.6,-100.00,ESE,119,0.0,1.0,89,0.00,,,0.89,meteohub,2013-05-31 21:42:00,
2013-05-31 16:47:00,71.2,68.2,-100.00,ESE,118,0.0,1.0,90,0.00,,,0.89,meteohub,2013-05-31 21:47:00,
2013-05-31 16:52:00,71.4,68.4,-100.00,ESE,119,0.0,1.0,90,0.00,,,0.89,meteohub,2013-05-31 21:52:00,
2013-05-31 16:57:00,71.6,68.2,-100.00,ESE,119,0.0,1.0,89,0.00,,,0.89,meteohub,2013-05-31 21:57:00,
2013-05-31 17:02:00,72.1,68.4,-100.00,ESE,118,0.0,1.0,88,0.00,,,0.89,meteohub,2013-05-31 22:02:00,
2013-05-31 17:07:00,72.1,68.4,-100.00,ESE,119,0.0,1.0,88,0.00,,,0.89,meteohub,2013-05-31 22:07:00,
2013-05-31 17:12:00,72.5,68.7,-100.00,ESE,119,0.0,0.0,88,0.00,,,0.89,meteohub,2013-05-31 22:12:00,
2013-05-31 17:17:00,72.7,68.9,-100.00,ESE,119,0.0,0.0,88,0.00,,,0.89,meteohub,2013-05-31 22:17:00,
2013-05-31 17:22:00,72.3,68.2,-100.00,ESE,118,0.0,0.0,87,0.00,,,0.89,meteohub,2013-05-31 22:22:00,
2013-05-31 17:27:00,72.0,68.2,-100.00,ESE,118,0.0,0.0,88,0.00,,,0.89,meteohub,2013-05-31 22:27:00,
2013-05-31 17:32:00,72.0,68.2,-100.00,ESE,118,0.0,0.0,88,0.00,,,0.89,meteohub,2013-05-31 22:32:00,
2013-05-31 17:37:00,72.0,68.2,-100.00,ESE,119,0.0,0.0,88,0.00,,,0.89,meteohub,2013-05-31 22:37:00,
2013-05-31 17:42:00,71.8,68.0,-100.00,ESE,119,0.0,0.0,88,0.00,,,0.89,meteohub,2013-05-31 22:42:00,
2013-05-31 17:47:00,71.4,68.0,-100.00,ESE,119,0.0,0.0,89,0.00,,,0.89,meteohub,2013-05-31 22:47:00,
2013-05-31 17:52:00,71.4,68.0,-100.00,ESE,118,0.0,0.0,89,0.00,,,0.89,meteohub,2013-05-31 22:52:00,
2013-05-31 17:57:00,71.2,67.8,-100.00,ESE,119,0.0,0.0,89,0.00,,,0.89,meteohub,2013-05-31 22:57:00,
2013-05-31 18:02:00,71.2,68.2,-100.00,ESE,119,0.0,0.0,90,0.00,,,0.89,meteohub,2013-05-31 23:02:00,
2013-05-31 18:07:00,71.1,68.0,-100.00,ESE,118,0.0,0.0,90,0.00,,,0.89,meteohub,2013-05-31 23:07:00,
2013-05-31 18:12:00,70.9,68.2,-100.00,ESE,118,0.0,0.0,91,0.00,,,0.89,meteohub,2013-05-31 23:12:00,
2013-05-31 18:17:00,70.5,67.8,-100.00,ESE,119,0.0,0.0,91,0.00,,,0.89,meteohub,2013-05-31 23:17:00,
2013-05-31 18:22:00,70.5,67.8,-100.00,ESE,118,0.0,0.0,91,0.00,,,0.89,meteohub,2013-05-31 23:22:00,
2013-05-31 18:27:00,70.5,68.0,-100.00,ESE,119,0.0,0.0,92,0.00,,,0.89,meteohub,2013-05-31 23:27:00,
2013-05-31 18:32:00,70.5,68.0,-100.00,ESE,119,0.0,0.0,92,0.00,,,0.89,meteohub,2013-05-31 23:32:00,
2013-05-31 18:37:00,70.3,67.8,-100.00,ESE,118,0.0,0.0,92,0.00,,,0.89,meteohub,2013-05-31 23:37:00,
2013-05-31 18:42:00,70.5,68.0,-100.00,ESE,119,0.0,0.0,92,0.00,,,0.89,meteohub,2013-05-31 23:42:00,
2013-05-31 18:47:00,70.5,68.0,-100.00,ESE,119,0.0,0.0,92,0.01,,,0.90,meteohub,2013-05-31 23:47:00,
2013-05-31 18:52:00,70.3,68.2,-100.00,ESE,118,0.0,0.0,93,0.01,,,0.90,meteohub,2013-05-31 23:52:00,
2013-05-31 18:57:00,70.3,68.2,-100.00,East,86,0.0,0.0,93,0.02,,,0.91,meteohub,2013-05-31 23:57:00,
2013-05-31 19:02:00,70.3,68.2,-100.00,East,86,0.0,0.0,93,0.02,,,0.91,meteohub,2013-06-01 00:02:00,
2013-05-31 19:07:00,70.3,68.2,-100.00,East,86,0.0,0.0,93,0.03,,,0.01,meteohub,2013-06-01 00:07:00,
2013-05-31 19:12:00,70.3,68.2,-100.00,East,86,0.0,0.0,93,0.04,,,0.02,meteohub,2013-06-01 00:12:00,
2013-05-31 19:17:00,70.3,68.5,-100.00,East,86,0.0,0.0,94,0.04,,,0.02,meteohub,2013-06-01 00:17:00,
2013-05-31 19:22:00,70.2,68.4,-100.00,NE,56,0.0,0.0,94,0.05,,,0.03,meteohub,2013-06-01 00:22:00,
2013-05-31 19:27:00,70.3,68.5,-100.00,ENE,63,0.0,0.0,94,0.05,,,0.03,meteohub,2013-06-01 00:27:00,
2013-05-31 19:32:00,70.9,69.1,-100.00,ENE,71,0.0,0.0,94,0.06,,,0.04,meteohub,2013-06-01 00:32:00,
2013-05-31 19:37:00,71.1,69.3,-100.00,ESE,122,0.0,0.0,94,0.06,,,0.04,meteohub,2013-06-01 00:37:00,
2013-05-31 19:42:00,71.2,69.4,-100.00,SE,125,0.0,1.0,94,0.06,,,0.04,meteohub,2013-06-01 00:42:00,
2013-05-31 19:47:00,71.2,69.4,-100.00,ESE,122,0.0,1.0,94,0.06,,,0.05,meteohub,2013-06-01 00:47:00,
2013-05-31 19:52:00,71.2,69.1,-100.00,ESE,119,0.0,1.0,93,0.06,,,0.05,meteohub,2013-06-01 00:52:00,
2013-05-31 19:57:00,71.2,69.1,-100.00,ESE,105,0.0,2.0,93,0.05,,,0.05,meteohub,2013-06-01 00:57:00,
2013-05-31 20:02:00,71.2,68.7,-100.00,SSE,153,0.0,2.0,92,0.05,,,0.05,meteohub,2013-06-01 01:02:00,
2013-05-31 20:07:00,70.9,68.2,-100.00,ESE,111,0.0,2.0,91,0.03,,,0.05,meteohub,2013-06-01 01:07:00,
2013-05-31 20:12:00,70.5,67.5,-100.00,SE,134,0.0,1.0,90,0.03,,,0.05,meteohub,2013-06-01 01:12:00,
2013-05-31 20:17:00,70.2,66.7,-100.00,ESE,119,0.0,1.0,89,0.03,,,0.05,meteohub,2013-06-01 01:17:00,
2013-05-31 20:22:00,69.6,65.7,-100.00,SE,130,0.0,1.0,87,0.02,,,0.05,meteohub,2013-06-01 01:22:00,
2013-05-31 20:27:00,69.1,64.4,-100.00,SE,133,1.0,1.0,85,0.01,,,0.05,meteohub,2013-06-01 01:27:00,
2013-05-31 20:32:00,68.5,64.2,-100.00,ESE,121,0.0,1.0,86,0.01,,,0.05,meteohub,2013-06-01 01:32:00,
2013-05-31 20:37:00,68.0,63.7,-100.00,ESE,121,0.0,1.0,86,0.01,,,0.05,meteohub,2013-06-01 01:37:00,
2013-05-31 20:42:00,67.5,63.5,-100.00,ESE,122,0.0,1.0,87,0.00,,,0.05,meteohub,2013-06-01 01:42:00,
2013-05-31 20:47:00,67.3,63.3,-100.00,ESE,113,0.0,0.0,87,0.00,,,0.05,meteohub,2013-06-01 01:47:00,
2013-05-31 20:52:00,66.9,63.3,-100.00,ESE,113,0.0,0.0,88,0.00,,,0.05,meteohub,2013-06-01 01:52:00,
2013-05-31 20:57:00,66.7,63.1,-100.00,ESE,113,0.0,0.0,88,0.00,,,0.05,meteohub,2013-06-01 01:57:00,
2013-05-31 21:02:00,66.6,63.1,-100.00,ESE,113,0.0,0.0,89,0.00,,,0.05,meteohub,2013-06-01 02:02:00,
2013-05-31 21:07:00,66.6,63.1,-100.00,ESE,113,0.0,0.0,89,0.00,,,0.05,meteohub,2013-06-01 02:07:00,
2013-05-31 21:12:00,66.4,63.0,-100.00,ESE,113,0.0,0.0,89,0.00,,,0.05,meteohub,2013-06-01 02:12:00,
2013-05-31 21:17:00,66.0,63.0,-100.00,ESE,113,0.0,0.0,90,0.00,,,0.05,meteohub,2013-06-01 02:17:00,
2013-05-31 21:22:00,65.8,62.8,-100.00,ESE,114,0.0,0.0,90,0.00,,,0.05,meteohub,2013-06-01 02:22:00,
2013-05-31 21:27:00,65.8,63.1,-100.00,SSE,156,0.0,0.0,91,0.00,,,0.05,meteohub,2013-06-01 02:27:00,
2013-05-31 21:32:00,65.8,63.1,-100.00,SW,229,0.0,0.0,91,0.00,,,0.05,meteohub,2013-06-01 02:32:00,
2013-05-31 21:37:00,65.8,63.1,-100.00,SW,223,1.0,13.0,91,0.00,,,0.05,meteohub,2013-06-01 02:37:00,
2013-05-31 21:42:00,66.0,63.3,-100.00,SW,234,0.0,13.0,91,0.00,,,0.05,meteohub,2013-06-01 02:42:00,
2013-05-31 21:47:00,66.0,63.7,-100.00,SSW,200,0.0,13.0,92,0.00,,,0.05,meteohub,2013-06-01 02:47:00,
2013-05-31 21:52:00,66.0,63.7,-100.00,SSW,209,0.0,13.0,92,0.00,,,0.05,meteohub,2013-06-01 02:52:00,
2013-05-31 21:57:00,66.0,63.7,-100.00,SSW,207,0.0,13.0,92,0.00,,,0.05,meteohub,2013-06-01 02:57:00,
2013-05-31 22:02:00,66.0,63.7,-100.00,SSW,205,0.0,1.0,92,0.00,,,0.05,meteohub,2013-06-01 03:02:00,
2013-05-31 22:07:00,66.0,63.7,-100.00,SSW,205,0.0,0.0,92,0.00,,,0.05,meteohub,2013-06-01 03:07:00,
2013-05-31 22:12:00,66.0,63.7,-100.00,SW,214,0.0,0.0,92,0.00,,,0.05,meteohub,2013-06-01 03:12:00,
2013-05-31 22:18:00,66.0,63.7,-100.00,SW,223,0.0,1.0,92,0.00,,,0.05,meteohub,2013-06-01 03:18:00,
2013-05-31 22:23:00,66.4,64.2,-100.00,SW,214,0.0,1.0,93,0.00,,,0.05,meteohub,2013-06-01 03:23:00,
2013-05-31 22:28:00,66.4,64.2,-100.00,SW,221,0.0,1.0,93,0.00,,,0.05,meteohub,2013-06-01 03:28:00,
2013-05-31 22:33:00,66.7,64.6,-100.00,SSW,206,5.0,9.0,93,0.00,,,0.05,meteohub,2013-06-01 03:33:00,
2013-05-31 22:38:00,66.9,64.8,-100.00,SSW,211,0.0,14.0,93,0.00,,,0.05,meteohub,2013-06-01 03:38:00,
2013-05-31 22:43:00,67.3,64.9,-100.00,SSW,206,10.0,14.0,92,0.00,,,0.05,meteohub,2013-06-01 03:43:00,
2013-05-31 22:48:00,67.3,64.9,-100.00,SSW,209,11.0,18.0,92,0.00,,,0.05,meteohub,2013-06-01 03:48:00,
2013-05-31 22:53:00,67.3,64.6,-100.00,South,185,10.0,18.0,91,0.00,,,0.05,meteohub,2013-06-01 03:53:00,
2013-05-31 22:58:00,67.1,64.4,-100.00,SSW,198,0.0,18.0,91,0.00,,,0.05,meteohub,2013-06-01 03:58:00,
2013-05-31 23:01:00,66.9,63.9,-100.00,SSW,207,3.0,12.0,90,0.00,,,0.05,meteohub,2013-06-01 04:01:00,
2013-05-31 23:06:00,66.9,63.9,-100.00,SE,126,0.0,11.0,90,0.00,,,0.05,meteohub,2013-06-01 04:06:00,
2013-05-31 23:11:00,66.7,63.7,-100.00,SE,146,0.0,11.0,90,0.00,,,0.05,meteohub,2013-06-01 04:11:00,
2013-05-31 23:16:00,66.7,63.7,-100.00,SSE,160,0.0,11.0,90,0.00,,,0.05,meteohub,2013-06-01 04:16:00,
2013-05-31 23:21:00,66.6,63.5,-100.00,SSE,162,0.0,10.0,90,0.00,,,0.05,meteohub,2013-06-01 04:21:00,
2013-05-31 23:26:00,66.6,63.9,-100.00,South,190,0.0,1.0,91,0.00,,,0.05,meteohub,2013-06-01 04:26:00,
2013-05-31 23:31:00,66.4,63.7,-100.00,South,170,0.0,10.0,91,0.00,,,0.05,meteohub,2013-06-01 04:31:00,
2013-05-31 23:36:00,66.4,63.7,-100.00,South,182,1.0,10.0,91,0.00,,,0.05,meteohub,2013-06-01 04:36:00,
2013-05-31 23:41:00,66.0,63.3,-100.00,SE,128,0.0,7.0,91,0.00,,,0.05,meteohub,2013-06-01 04:41:00,
2013-05-31 23:46:00,66.0,63.0,-100.00,South,173,0.0,9.0,90,0.00,,,0.05,meteohub,2013-06-01 04:46:00,
2013-05-31 23:51:00,65.8,62.8,-100.00,SSE,166,3.0,12.0,90,0.00,,,0.05,meteohub,2013-06-01 04:51:00,
2013-05-31 23:56:00,65.8,62.8,-100.00,SSE,167,0.0,12.0,90,0.00,,,0.05,meteohub,2013-06-01 04:56:00,